sensor_id;sensor_type;location;lat;lon;timestamp;P1;durP1;ratioP1;P2;durP2;ratioP2
8001;SDS011;4046;48.774;8.732;2023-02-26T00:00:28;1.10;;;0.70;;
8001;SDS011;4046;48.774;8.732;2023-02-26T00:02:55;1.50;;;0.93;;
8001;SDS011;4046;48.774;8.732;2023-02-26T00:05:21;1.20;;;0.80;;
8001;SDS011;4046;48.774;8.732;2023-02-26T00:07:47;1.20;;;0.80;;
8001;SDS011;4046;48.774;8.732;2023-02-26T00:10:13;1.20;;;0.80;;
8001;SDS011;4046;48.774;8.732;2023-02-26T00:12:41;1.20;;;0.70;;
8001;SDS011;4046;48.774;8.732;2023-02-26T00:15:09;1.20;;;0.70;;
8001;SDS011;4046;48.774;8.732;2023-02-26T00:20:38;1.10;;;0.67;;
8001;SDS011;4046;48.774;8.732;2023-02-26T00:23:04;1.20;;;0.73;;
8001;SDS011;4046;48.774;8.732;2023-02-26T00:25:30;1.10;;;0.60;;
8001;SDS011;4046;48.774;8.732;2023-02-26T00:27:57;1.20;;;0.70;;
8001;SDS011;4046;48.774;8.732;2023-02-26T00:30:23;1.10;;;0.70;;
8001;SDS011;4046;48.774;8.732;2023-02-26T00:32:49;1.33;;;0.73;;
8001;SDS011;4046;48.774;8.732;2023-02-26T00:35:16;1.23;;;0.70;;
8001;SDS011;4046;48.774;8.732;2023-02-26T00:37:50;1.20;;;0.70;;
8001;SDS011;4046;48.774;8.732;2023-02-26T00:40:28;1.27;;;0.70;;
8001;SDS011;4046;48.774;8.732;2023-02-26T00:43:15;1.20;;;0.90;;
8001;SDS011;4046;48.774;8.732;2023-02-26T00:45:44;1.10;;;0.60;;
8001;SDS011;4046;48.774;8.732;2023-02-26T00:48:39;1.20;;;0.70;;
8001;SDS011;4046;48.774;8.732;2023-02-26T00:51:40;1.20;;;0.70;;
8001;SDS011;4046;48.774;8.732;2023-02-26T00:54:23;1.23;;;0.70;;
8001;SDS011;4046;48.774;8.732;2023-02-26T00:56:52;1.20;;;0.70;;
8001;SDS011;4046;48.774;8.732;2023-02-26T00:59:19;1.27;;;0.73;;
8001;SDS011;4046;48.774;8.732;2023-02-26T01:01:47;1.20;;;0.80;;
8001;SDS011;4046;48.774;8.732;2023-02-26T01:04:14;1.40;;;0.77;;
8001;SDS011;4046;48.774;8.732;2023-02-26T01:06:42;1.40;;;1.00;;
8001;SDS011;4046;48.774;8.732;2023-02-26T01:12:00;1.10;;;0.60;;
8001;SDS011;4046;48.774;8.732;2023-02-26T01:14:30;1.30;;;0.70;;
8001;SDS011;4046;48.774;8.732;2023-02-26T01:17:10;1.20;;;0.70;;
8001;SDS011;4046;48.774;8.732;2023-02-26T01:19:55;1.20;;;0.77;;
8001;SDS011;4046;48.774;8.732;2023-02-26T01:22:30;1.20;;;0.80;;
8001;SDS011;4046;48.774;8.732;2023-02-26T01:25:10;1.20;;;0.80;;
8001;SDS011;4046;48.774;8.732;2023-02-26T01:27:40;1.20;;;0.80;;
8001;SDS011;4046;48.774;8.732;2023-02-26T01:30:07;1.10;;;0.67;;
8001;SDS011;4046;48.774;8.732;2023-02-26T01:46:53;1.43;;;0.80;;
8001;SDS011;4046;48.774;8.732;2023-02-26T01:49:26;1.30;;;0.80;;
8001;SDS011;4046;48.774;8.732;2023-02-26T01:54:21;1.87;;;0.87;;
8001;SDS011;4046;48.774;8.732;2023-02-26T01:56:58;1.20;;;0.70;;
8001;SDS011;4046;48.774;8.732;2023-02-26T01:59:29;1.30;;;0.90;;
8001;SDS011;4046;48.774;8.732;2023-02-26T02:01:57;1.17;;;0.60;;
8001;SDS011;4046;48.774;8.732;2023-02-26T02:04:27;1.20;;;0.80;;
8001;SDS011;4046;48.774;8.732;2023-02-26T02:06:53;1.10;;;0.70;;
8001;SDS011;4046;48.774;8.732;2023-02-26T02:09:20;1.40;;;0.80;;
8001;SDS011;4046;48.774;8.732;2023-02-26T02:18:16;1.20;;;0.70;;
8001;SDS011;4046;48.774;8.732;2023-02-26T02:21:01;1.20;;;0.70;;
8001;SDS011;4046;48.774;8.732;2023-02-26T02:24:00;1.20;;;0.70;;
8001;SDS011;4046;48.774;8.732;2023-02-26T02:29:32;1.40;;;0.87;;
8001;SDS011;4046;48.774;8.732;2023-02-26T02:32:27;1.20;;;0.80;;
8001;SDS011;4046;48.774;8.732;2023-02-26T02:35:14;1.20;;;0.60;;
8001;SDS011;4046;48.774;8.732;2023-02-26T02:40:23;1.30;;;0.70;;
8001;SDS011;4046;48.774;8.732;2023-02-26T02:42:55;1.20;;;0.80;;
8001;SDS011;4046;48.774;8.732;2023-02-26T02:45:33;1.20;;;0.80;;
8001;SDS011;4046;48.774;8.732;2023-02-26T02:48:12;1.20;;;0.80;;
8001;SDS011;4046;48.774;8.732;2023-02-26T02:50:59;1.20;;;0.87;;
8001;SDS011;4046;48.774;8.732;2023-02-26T02:53:32;1.27;;;0.80;;
8001;SDS011;4046;48.774;8.732;2023-02-26T02:56:17;1.20;;;0.70;;
8001;SDS011;4046;48.774;8.732;2023-02-26T02:58:49;1.40;;;0.83;;
8001;SDS011;4046;48.774;8.732;2023-02-26T03:01:20;1.10;;;0.70;;
8001;SDS011;4046;48.774;8.732;2023-02-26T03:03:54;1.20;;;0.90;;
8001;SDS011;4046;48.774;8.732;2023-02-26T03:06:27;1.10;;;0.70;;
8001;SDS011;4046;48.774;8.732;2023-02-26T03:08:53;1.10;;;0.70;;
8001;SDS011;4046;48.774;8.732;2023-02-26T03:11:20;1.30;;;0.70;;
8001;SDS011;4046;48.774;8.732;2023-02-26T03:13:46;1.10;;;0.70;;
8001;SDS011;4046;48.774;8.732;2023-02-26T03:19:25;1.20;;;0.80;;
8001;SDS011;4046;48.774;8.732;2023-02-26T03:22:14;1.20;;;0.70;;
8001;SDS011;4046;48.774;8.732;2023-02-26T03:24:54;1.17;;;0.80;;
8001;SDS011;4046;48.774;8.732;2023-02-26T03:30:21;1.47;;;0.70;;
8001;SDS011;4046;48.774;8.732;2023-02-26T03:32:51;1.10;;;0.63;;
8001;SDS011;4046;48.774;8.732;2023-02-26T03:35:32;1.20;;;0.73;;
8001;SDS011;4046;48.774;8.732;2023-02-26T03:38:06;1.17;;;0.80;;
8001;SDS011;4046;48.774;8.732;2023-02-26T03:40:43;1.20;;;0.90;;
8001;SDS011;4046;48.774;8.732;2023-02-26T03:43:22;1.20;;;0.80;;
8001;SDS011;4046;48.774;8.732;2023-02-26T03:46:02;1.20;;;0.70;;
8001;SDS011;4046;48.774;8.732;2023-02-26T03:48:31;1.30;;;0.90;;
8001;SDS011;4046;48.774;8.732;2023-02-26T03:51:09;1.20;;;0.70;;
8001;SDS011;4046;48.774;8.732;2023-02-26T03:53:51;1.10;;;0.70;;
8001;SDS011;4046;48.774;8.732;2023-02-26T03:56:24;1.20;;;0.80;;
8001;SDS011;4046;48.774;8.732;2023-02-26T03:59:01;1.30;;;0.70;;
8001;SDS011;4046;48.774;8.732;2023-02-26T04:01:30;1.30;;;0.80;;
8001;SDS011;4046;48.774;8.732;2023-02-26T04:04:03;1.40;;;0.90;;
8001;SDS011;4046;48.774;8.732;2023-02-26T04:06:34;1.20;;;0.80;;
8001;SDS011;4046;48.774;8.732;2023-02-26T04:09:00;1.20;;;0.77;;
8001;SDS011;4046;48.774;8.732;2023-02-26T04:11:28;1.60;;;0.90;;
8001;SDS011;4046;48.774;8.732;2023-02-26T04:13:55;1.20;;;0.70;;
8001;SDS011;4046;48.774;8.732;2023-02-26T04:16:21;1.20;;;0.70;;
8001;SDS011;4046;48.774;8.732;2023-02-26T04:18:48;1.30;;;0.70;;
8001;SDS011;4046;48.774;8.732;2023-02-26T04:21:15;1.10;;;0.67;;
8001;SDS011;4046;48.774;8.732;2023-02-26T04:23:43;1.17;;;0.60;;
8001;SDS011;4046;48.774;8.732;2023-02-26T04:26:09;1.30;;;1.10;;
8001;SDS011;4046;48.774;8.732;2023-02-26T04:28:38;1.17;;;0.70;;
8001;SDS011;4046;48.774;8.732;2023-02-26T04:31:05;1.20;;;0.80;;
8001;SDS011;4046;48.774;8.732;2023-02-26T04:33:31;1.20;;;0.80;;
8001;SDS011;4046;48.774;8.732;2023-02-26T04:35:59;1.10;;;0.70;;
8001;SDS011;4046;48.774;8.732;2023-02-26T04:38:25;1.27;;;0.90;;
8001;SDS011;4046;48.774;8.732;2023-02-26T04:40:51;1.30;;;0.70;;
8001;SDS011;4046;48.774;8.732;2023-02-26T04:43:17;1.20;;;0.80;;
8001;SDS011;4046;48.774;8.732;2023-02-26T04:45:45;1.20;;;0.80;;
8001;SDS011;4046;48.774;8.732;2023-02-26T04:48:12;1.57;;;0.80;;
8001;SDS011;4046;48.774;8.732;2023-02-26T04:50:39;1.13;;;0.77;;
8001;SDS011;4046;48.774;8.732;2023-02-26T04:53:06;1.20;;;0.80;;
8001;SDS011;4046;48.774;8.732;2023-02-26T04:55:33;1.20;;;0.80;;
8001;SDS011;4046;48.774;8.732;2023-02-26T04:58:00;1.30;;;0.80;;
8001;SDS011;4046;48.774;8.732;2023-02-26T05:00:26;1.13;;;0.70;;
8001;SDS011;4046;48.774;8.732;2023-02-26T05:02:53;1.30;;;0.70;;
8001;SDS011;4046;48.774;8.732;2023-02-26T05:05:19;1.20;;;0.70;;
8001;SDS011;4046;48.774;8.732;2023-02-26T05:07:45;1.10;;;0.80;;
8001;SDS011;4046;48.774;8.732;2023-02-26T05:10:11;1.20;;;0.90;;
8001;SDS011;4046;48.774;8.732;2023-02-26T05:12:38;5.50;;;0.93;;
8001;SDS011;4046;48.774;8.732;2023-02-26T05:15:04;1.30;;;0.90;;
8001;SDS011;4046;48.774;8.732;2023-02-26T05:17:31;1.53;;;1.10;;
8001;SDS011;4046;48.774;8.732;2023-02-26T05:19:57;1.20;;;0.80;;
8001;SDS011;4046;48.774;8.732;2023-02-26T05:22:23;1.20;;;0.70;;
8001;SDS011;4046;48.774;8.732;2023-02-26T05:24:49;1.10;;;0.70;;
8001;SDS011;4046;48.774;8.732;2023-02-26T05:27:15;1.20;;;0.80;;
8001;SDS011;4046;48.774;8.732;2023-02-26T05:29:42;1.20;;;0.70;;
8001;SDS011;4046;48.774;8.732;2023-02-26T05:32:09;1.30;;;0.80;;
8001;SDS011;4046;48.774;8.732;2023-02-26T05:34:36;1.53;;;0.90;;
8001;SDS011;4046;48.774;8.732;2023-02-26T05:37:02;1.30;;;0.80;;
8001;SDS011;4046;48.774;8.732;2023-02-26T05:39:28;1.37;;;0.70;;
8001;SDS011;4046;48.774;8.732;2023-02-26T05:41:54;1.10;;;0.60;;
8001;SDS011;4046;48.774;8.732;2023-02-26T05:44:21;1.27;;;0.80;;
8001;SDS011;4046;48.774;8.732;2023-02-26T05:46:48;1.10;;;0.70;;
8001;SDS011;4046;48.774;8.732;2023-02-26T05:49:14;1.20;;;0.63;;
8001;SDS011;4046;48.774;8.732;2023-02-26T05:51:40;1.17;;;0.70;;
8001;SDS011;4046;48.774;8.732;2023-02-26T05:54:07;1.20;;;0.80;;
8001;SDS011;4046;48.774;8.732;2023-02-26T05:56:34;1.70;;;1.00;;
8001;SDS011;4046;48.774;8.732;2023-02-26T05:59:01;1.20;;;0.80;;
8001;SDS011;4046;48.774;8.732;2023-02-26T06:01:28;1.20;;;0.80;;
8001;SDS011;4046;48.774;8.732;2023-02-26T06:03:54;1.13;;;0.80;;
8001;SDS011;4046;48.774;8.732;2023-02-26T06:06:20;1.13;;;0.70;;
8001;SDS011;4046;48.774;8.732;2023-02-26T06:08:46;1.17;;;0.70;;
8001;SDS011;4046;48.774;8.732;2023-02-26T06:11:13;1.20;;;0.77;;
8001;SDS011;4046;48.774;8.732;2023-02-26T06:13:39;1.37;;;0.80;;
8001;SDS011;4046;48.774;8.732;2023-02-26T06:16:05;1.30;;;0.80;;
8001;SDS011;4046;48.774;8.732;2023-02-26T06:18:32;1.40;;;0.80;;
8001;SDS011;4046;48.774;8.732;2023-02-26T06:20:58;1.30;;;1.00;;
8001;SDS011;4046;48.774;8.732;2023-02-26T06:23:25;1.20;;;0.83;;
8001;SDS011;4046;48.774;8.732;2023-02-26T06:25:52;1.20;;;0.80;;
8001;SDS011;4046;48.774;8.732;2023-02-26T06:28:18;1.30;;;0.90;;
8001;SDS011;4046;48.774;8.732;2023-02-26T06:30:45;1.20;;;0.73;;
8001;SDS011;4046;48.774;8.732;2023-02-26T06:33:11;1.20;;;0.70;;
8001;SDS011;4046;48.774;8.732;2023-02-26T06:35:37;1.30;;;0.77;;
8001;SDS011;4046;48.774;8.732;2023-02-26T06:38:04;1.57;;;0.80;;
8001;SDS011;4046;48.774;8.732;2023-02-26T06:40:30;1.20;;;0.77;;
8001;SDS011;4046;48.774;8.732;2023-02-26T06:42:56;1.10;;;0.70;;
8001;SDS011;4046;48.774;8.732;2023-02-26T06:45:22;1.20;;;0.90;;
8001;SDS011;4046;48.774;8.732;2023-02-26T06:47:52;1.30;;;0.90;;
8001;SDS011;4046;48.774;8.732;2023-02-26T06:50:18;1.20;;;0.80;;
8001;SDS011;4046;48.774;8.732;2023-02-26T06:52:44;1.20;;;0.80;;
8001;SDS011;4046;48.774;8.732;2023-02-26T06:55:10;1.13;;;0.70;;
8001;SDS011;4046;48.774;8.732;2023-02-26T06:57:37;1.40;;;0.80;;
8001;SDS011;4046;48.774;8.732;2023-02-26T07:00:03;1.20;;;0.70;;
8001;SDS011;4046;48.774;8.732;2023-02-26T07:02:31;1.20;;;0.70;;
8001;SDS011;4046;48.774;8.732;2023-02-26T07:04:58;1.70;;;1.20;;
8001;SDS011;4046;48.774;8.732;2023-02-26T07:07:24;1.10;;;0.70;;
8001;SDS011;4046;48.774;8.732;2023-02-26T07:09:50;1.10;;;0.80;;
8001;SDS011;4046;48.774;8.732;2023-02-26T07:12:17;1.20;;;0.77;;
8001;SDS011;4046;48.774;8.732;2023-02-26T07:14:43;1.30;;;0.80;;
8001;SDS011;4046;48.774;8.732;2023-02-26T07:17:10;1.20;;;0.90;;
8001;SDS011;4046;48.774;8.732;2023-02-26T07:19:51;1.50;;;0.80;;
8001;SDS011;4046;48.774;8.732;2023-02-26T07:22:18;1.30;;;0.87;;
8001;SDS011;4046;48.774;8.732;2023-02-26T07:24:44;1.20;;;0.70;;
8001;SDS011;4046;48.774;8.732;2023-02-26T07:27:11;1.67;;;0.83;;
8001;SDS011;4046;48.774;8.732;2023-02-26T07:29:37;1.20;;;0.80;;
8001;SDS011;4046;48.774;8.732;2023-02-26T07:32:03;1.40;;;0.80;;
8001;SDS011;4046;48.774;8.732;2023-02-26T07:34:30;1.50;;;0.93;;
8001;SDS011;4046;48.774;8.732;2023-02-26T07:36:56;1.77;;;1.00;;
8001;SDS011;4046;48.774;8.732;2023-02-26T07:39:26;1.30;;;0.90;;
8001;SDS011;4046;48.774;8.732;2023-02-26T07:41:52;1.30;;;1.00;;
8001;SDS011;4046;48.774;8.732;2023-02-26T07:44:19;1.37;;;1.00;;
8001;SDS011;4046;48.774;8.732;2023-02-26T07:46:45;1.20;;;1.00;;
8001;SDS011;4046;48.774;8.732;2023-02-26T07:49:11;1.20;;;0.80;;
8001;SDS011;4046;48.774;8.732;2023-02-26T07:51:37;1.40;;;1.10;;
8001;SDS011;4046;48.774;8.732;2023-02-26T07:54:05;1.23;;;1.00;;
8001;SDS011;4046;48.774;8.732;2023-02-26T07:56:31;1.40;;;1.10;;
8001;SDS011;4046;48.774;8.732;2023-02-26T07:58:57;1.20;;;0.73;;
8001;SDS011;4046;48.774;8.732;2023-02-26T08:01:24;1.33;;;1.00;;
8001;SDS011;4046;48.774;8.732;2023-02-26T08:03:50;1.20;;;1.00;;
8001;SDS011;4046;48.774;8.732;2023-02-26T08:06:16;1.30;;;1.00;;
8001;SDS011;4046;48.774;8.732;2023-02-26T08:08:42;1.53;;;0.97;;
8001;SDS011;4046;48.774;8.732;2023-02-26T08:11:08;1.50;;;1.20;;
8001;SDS011;4046;48.774;8.732;2023-02-26T08:13:34;1.23;;;0.90;;
8001;SDS011;4046;48.774;8.732;2023-02-26T08:16:01;1.30;;;1.00;;
8001;SDS011;4046;48.774;8.732;2023-02-26T08:18:27;1.20;;;0.90;;
8001;SDS011;4046;48.774;8.732;2023-02-26T08:20:53;1.23;;;1.00;;
8001;SDS011;4046;48.774;8.732;2023-02-26T08:23:19;1.30;;;1.03;;
8001;SDS011;4046;48.774;8.732;2023-02-26T08:25:45;1.40;;;1.03;;
8001;SDS011;4046;48.774;8.732;2023-02-26T08:28:11;1.50;;;1.20;;
8001;SDS011;4046;48.774;8.732;2023-02-26T08:30:38;1.37;;;1.20;;
8001;SDS011;4046;48.774;8.732;2023-02-26T08:33:04;1.80;;;1.10;;
8001;SDS011;4046;48.774;8.732;2023-02-26T08:35:30;1.53;;;1.30;;
8001;SDS011;4046;48.774;8.732;2023-02-26T08:37:56;1.83;;;1.10;;
8001;SDS011;4046;48.774;8.732;2023-02-26T08:40:22;2.00;;;1.13;;
8001;SDS011;4046;48.774;8.732;2023-02-26T08:42:49;1.37;;;1.07;;
8001;SDS011;4046;48.774;8.732;2023-02-26T08:45:15;1.20;;;0.90;;
8001;SDS011;4046;48.774;8.732;2023-02-26T08:47:41;1.30;;;1.10;;
8001;SDS011;4046;48.774;8.732;2023-02-26T08:50:08;1.40;;;1.10;;
8001;SDS011;4046;48.774;8.732;2023-02-26T08:52:35;1.20;;;1.00;;
8001;SDS011;4046;48.774;8.732;2023-02-26T08:55:03;1.20;;;0.80;;
8001;SDS011;4046;48.774;8.732;2023-02-26T08:57:30;1.20;;;0.97;;
8001;SDS011;4046;48.774;8.732;2023-02-26T08:59:56;1.27;;;1.00;;
8001;SDS011;4046;48.774;8.732;2023-02-26T09:02:22;1.30;;;1.00;;
8001;SDS011;4046;48.774;8.732;2023-02-26T09:04:48;1.20;;;0.90;;
8001;SDS011;4046;48.774;8.732;2023-02-26T09:07:15;1.30;;;1.10;;
8001;SDS011;4046;48.774;8.732;2023-02-26T09:09:41;1.30;;;1.10;;
8001;SDS011;4046;48.774;8.732;2023-02-26T09:12:08;1.33;;;1.00;;
8001;SDS011;4046;48.774;8.732;2023-02-26T09:14:34;1.30;;;1.00;;
8001;SDS011;4046;48.774;8.732;2023-02-26T09:17:00;1.40;;;1.10;;
8001;SDS011;4046;48.774;8.732;2023-02-26T09:19:26;1.30;;;1.00;;
8001;SDS011;4046;48.774;8.732;2023-02-26T09:21:52;2.53;;;0.97;;
8001;SDS011;4046;48.774;8.732;2023-02-26T09:24:18;1.27;;;1.00;;
8001;SDS011;4046;48.774;8.732;2023-02-26T09:26:45;1.20;;;1.10;;
8001;SDS011;4046;48.774;8.732;2023-02-26T09:29:11;1.50;;;1.10;;
8001;SDS011;4046;48.774;8.732;2023-02-26T09:31:39;1.33;;;1.13;;
8001;SDS011;4046;48.774;8.732;2023-02-26T09:34:05;1.33;;;1.17;;
8001;SDS011;4046;48.774;8.732;2023-02-26T09:36:32;1.37;;;1.20;;
8001;SDS011;4046;48.774;8.732;2023-02-26T09:38:58;1.30;;;0.90;;
8001;SDS011;4046;48.774;8.732;2023-02-26T09:41:26;1.50;;;1.10;;
8001;SDS011;4046;48.774;8.732;2023-02-26T09:54:53;1.30;;;1.00;;
8001;SDS011;4046;48.774;8.732;2023-02-26T09:57:28;1.50;;;1.10;;
8001;SDS011;4046;48.774;8.732;2023-02-26T09:59:59;1.33;;;1.10;;
8001;SDS011;4046;48.774;8.732;2023-02-26T10:02:31;1.40;;;1.07;;
8001;SDS011;4046;48.774;8.732;2023-02-26T10:07:53;1.30;;;1.00;;
8001;SDS011;4046;48.774;8.732;2023-02-26T10:16:01;1.30;;;0.90;;
8001;SDS011;4046;48.774;8.732;2023-02-26T10:18:33;1.67;;;1.10;;
8001;SDS011;4046;48.774;8.732;2023-02-26T10:21:06;1.30;;;0.90;;
8001;SDS011;4046;48.774;8.732;2023-02-26T10:23:42;1.30;;;0.90;;
8001;SDS011;4046;48.774;8.732;2023-02-26T10:28:44;1.20;;;0.90;;
8001;SDS011;4046;48.774;8.732;2023-02-26T10:39:28;1.37;;;0.93;;
8001;SDS011;4046;48.774;8.732;2023-02-26T10:42:17;1.37;;;1.00;;
8001;SDS011;4046;48.774;8.732;2023-02-26T10:44:50;1.20;;;0.87;;
8001;SDS011;4046;48.774;8.732;2023-02-26T10:47:38;1.20;;;0.80;;
8001;SDS011;4046;48.774;8.732;2023-02-26T10:50:25;1.40;;;0.87;;
8001;SDS011;4046;48.774;8.732;2023-02-26T10:52:52;1.30;;;0.90;;
8001;SDS011;4046;48.774;8.732;2023-02-26T10:58:10;4.43;;;1.43;;
8001;SDS011;4046;48.774;8.732;2023-02-26T11:00:43;4.03;;;1.27;;
8001;SDS011;4046;48.774;8.732;2023-02-26T11:03:15;4.63;;;1.10;;
8001;SDS011;4046;48.774;8.732;2023-02-26T11:05:44;3.30;;;1.20;;
8001;SDS011;4046;48.774;8.732;2023-02-26T11:08:17;3.50;;;1.20;;
8001;SDS011;4046;48.774;8.732;2023-02-26T11:10:47;4.07;;;1.00;;
8001;SDS011;4046;48.774;8.732;2023-02-26T11:13:17;7.63;;;1.20;;
8001;SDS011;4046;48.774;8.732;2023-02-26T11:15:45;3.57;;;1.20;;
8001;SDS011;4046;48.774;8.732;2023-02-26T11:18:16;7.80;;;1.53;;
8001;SDS011;4046;48.774;8.732;2023-02-26T11:21:02;5.43;;;1.50;;
8001;SDS011;4046;48.774;8.732;2023-02-26T11:23:30;8.00;;;1.53;;
8001;SDS011;4046;48.774;8.732;2023-02-26T11:26:07;7.57;;;1.70;;
8001;SDS011;4046;48.774;8.732;2023-02-26T11:28:43;3.80;;;1.20;;
8001;SDS011;4046;48.774;8.732;2023-02-26T11:31:14;3.20;;;1.30;;
8001;SDS011;4046;48.774;8.732;2023-02-26T11:33:44;7.50;;;2.30;;
8001;SDS011;4046;48.774;8.732;2023-02-26T11:36:17;5.10;;;1.20;;
8001;SDS011;4046;48.774;8.732;2023-02-26T11:38:45;2.23;;;1.33;;
8001;SDS011;4046;48.774;8.732;2023-02-26T11:41:17;2.67;;;1.33;;
8001;SDS011;4046;48.774;8.732;2023-02-26T11:43:58;4.67;;;1.30;;
8001;SDS011;4046;48.774;8.732;2023-02-26T11:46:27;2.60;;;1.37;;
8001;SDS011;4046;48.774;8.732;2023-02-26T11:48:54;4.40;;;1.50;;
8001;SDS011;4046;48.774;8.732;2023-02-26T11:51:26;2.83;;;1.20;;
8001;SDS011;4046;48.774;8.732;2023-02-26T11:53:58;3.43;;;1.63;;
8001;SDS011;4046;48.774;8.732;2023-02-26T11:58:56;3.57;;;1.40;;
8001;SDS011;4046;48.774;8.732;2023-02-26T12:01:27;3.80;;;1.00;;
8001;SDS011;4046;48.774;8.732;2023-02-26T12:03:57;3.97;;;1.57;;
8001;SDS011;4046;48.774;8.732;2023-02-26T12:06:26;2.70;;;1.30;;
8001;SDS011;4046;48.774;8.732;2023-02-26T12:08:53;11.40;;;6.10;;
8001;SDS011;4046;48.774;8.732;2023-02-26T12:13:59;21.07;;;11.97;;
8001;SDS011;4046;48.774;8.732;2023-02-26T12:16:38;20.70;;;13.10;;
8001;SDS011;4046;48.774;8.732;2023-02-26T12:19:34;21.73;;;11.63;;
8001;SDS011;4046;48.774;8.732;2023-02-26T12:22:20;26.23;;;12.37;;
8001;SDS011;4046;48.774;8.732;2023-02-26T12:25:21;31.77;;;14.50;;
8001;SDS011;4046;48.774;8.732;2023-02-26T12:30:39;23.03;;;12.40;;
8001;SDS011;4046;48.774;8.732;2023-02-26T12:51:02;19.53;;;10.90;;
8001;SDS011;4046;48.774;8.732;2023-02-26T13:01:42;15.47;;;8.87;;
8001;SDS011;4046;48.774;8.732;2023-02-26T13:09:50;14.10;;;9.37;;
8001;SDS011;4046;48.774;8.732;2023-02-26T13:15:23;18.37;;;9.07;;
8001;SDS011;4046;48.774;8.732;2023-02-26T13:17:55;16.50;;;10.20;;
8001;SDS011;4046;48.774;8.732;2023-02-26T13:20:25;18.20;;;10.83;;
8001;SDS011;4046;48.774;8.732;2023-02-26T13:22:58;22.30;;;12.90;;
8001;SDS011;4046;48.774;8.732;2023-02-26T13:28:17;25.17;;;15.50;;
8001;SDS011;4046;48.774;8.732;2023-02-26T13:31:50;27.30;;;16.17;;
8001;SDS011;4046;48.774;8.732;2023-02-26T13:34:00;28.70;;;16.93;;
8001;SDS011;4046;48.774;8.732;2023-02-26T13:36:31;24.80;;;15.43;;
8001;SDS011;4046;48.774;8.732;2023-02-26T13:49:54;24.20;;;14.77;;
8001;SDS011;4046;48.774;8.732;2023-02-26T13:55:44;22.77;;;14.10;;
8001;SDS011;4046;48.774;8.732;2023-02-26T13:59:01;20.70;;;12.97;;
8001;SDS011;4046;48.774;8.732;2023-02-26T14:01:08;18.00;;;12.97;;
8001;SDS011;4046;48.774;8.732;2023-02-26T14:04:48;20.53;;;12.80;;
8001;SDS011;4046;48.774;8.732;2023-02-26T14:06:44;22.47;;;12.07;;
8001;SDS011;4046;48.774;8.732;2023-02-26T14:09:35;23.03;;;12.97;;
8001;SDS011;4046;48.774;8.732;2023-02-26T14:12:22;19.57;;;11.63;;
8001;SDS011;4046;48.774;8.732;2023-02-26T14:17:28;19.07;;;11.53;;
8001;SDS011;4046;48.774;8.732;2023-02-26T14:20:24;15.07;;;10.73;;
8001;SDS011;4046;48.774;8.732;2023-02-26T14:22:56;15.33;;;10.60;;
8001;SDS011;4046;48.774;8.732;2023-02-26T14:25:32;14.77;;;10.30;;
8001;SDS011;4046;48.774;8.732;2023-02-26T14:30:51;15.73;;;10.00;;
8001;SDS011;4046;48.774;8.732;2023-02-26T14:33:43;14.37;;;9.93;;
8001;SDS011;4046;48.774;8.732;2023-02-26T14:39:28;13.73;;;9.60;;
8001;SDS011;4046;48.774;8.732;2023-02-26T14:45:07;18.17;;;9.57;;
8001;SDS011;4046;48.774;8.732;2023-02-26T14:47:44;12.63;;;8.80;;
8001;SDS011;4046;48.774;8.732;2023-02-26T14:50:17;13.17;;;8.80;;
8001;SDS011;4046;48.774;8.732;2023-02-26T14:53:12;12.63;;;8.73;;
8001;SDS011;4046;48.774;8.732;2023-02-26T15:01:21;11.10;;;8.00;;
8001;SDS011;4046;48.774;8.732;2023-02-26T15:10:39;9.77;;;6.63;;
8001;SDS011;4046;48.774;8.732;2023-02-26T15:13:14;9.70;;;6.93;;
8001;SDS011;4046;48.774;8.732;2023-02-26T15:16:00;9.40;;;6.90;;
8001;SDS011;4046;48.774;8.732;2023-02-26T15:18:44;16.17;;;7.57;;
8001;SDS011;4046;48.774;8.732;2023-02-26T15:21:23;9.57;;;6.47;;
8001;SDS011;4046;48.774;8.732;2023-02-26T15:24:10;11.47;;;6.40;;
8001;SDS011;4046;48.774;8.732;2023-02-26T15:26:53;8.67;;;6.40;;
8001;SDS011;4046;48.774;8.732;2023-02-26T15:29:26;9.40;;;6.73;;
8001;SDS011;4046;48.774;8.732;2023-02-26T15:31:59;8.30;;;5.90;;
8001;SDS011;4046;48.774;8.732;2023-02-26T15:34:30;8.90;;;6.00;;
8001;SDS011;4046;48.774;8.732;2023-02-26T15:36:58;8.47;;;5.80;;
8001;SDS011;4046;48.774;8.732;2023-02-26T15:39:25;10.33;;;6.23;;
8001;SDS011;4046;48.774;8.732;2023-02-26T15:41:52;7.80;;;5.60;;
8001;SDS011;4046;48.774;8.732;2023-02-26T15:44:21;9.03;;;6.30;;
8001;SDS011;4046;48.774;8.732;2023-02-26T15:46:52;6.60;;;5.13;;
8001;SDS011;4046;48.774;8.732;2023-02-26T15:51:51;7.47;;;5.30;;
8001;SDS011;4046;48.774;8.732;2023-02-26T15:54:18;9.50;;;6.13;;
8001;SDS011;4046;48.774;8.732;2023-02-26T15:56:47;5.50;;;4.27;;
8001;SDS011;4046;48.774;8.732;2023-02-26T15:59:18;6.40;;;5.20;;
8001;SDS011;4046;48.774;8.732;2023-02-26T16:01:49;7.33;;;5.60;;
8001;SDS011;4046;48.774;8.732;2023-02-26T16:04:17;6.77;;;5.07;;
8001;SDS011;4046;48.774;8.732;2023-02-26T16:06:46;5.87;;;4.40;;
8001;SDS011;4046;48.774;8.732;2023-02-26T16:09:18;6.10;;;4.77;;
8001;SDS011;4046;48.774;8.732;2023-02-26T16:11:51;7.40;;;4.87;;
8001;SDS011;4046;48.774;8.732;2023-02-26T16:14:29;9.33;;;5.00;;
8001;SDS011;4046;48.774;8.732;2023-02-26T16:16:59;5.40;;;4.17;;
8001;SDS011;4046;48.774;8.732;2023-02-26T16:19:46;4.93;;;4.10;;
8001;SDS011;4046;48.774;8.732;2023-02-26T16:24:51;4.77;;;4.10;;
8001;SDS011;4046;48.774;8.732;2023-02-26T16:27:47;5.60;;;4.40;;
8001;SDS011;4046;48.774;8.732;2023-02-26T16:30:18;4.90;;;3.77;;
8001;SDS011;4046;48.774;8.732;2023-02-26T16:32:49;4.43;;;3.97;;
8001;SDS011;4046;48.774;8.732;2023-02-26T16:35:19;4.77;;;4.10;;
8001;SDS011;4046;48.774;8.732;2023-02-26T16:37:50;4.37;;;3.80;;
8001;SDS011;4046;48.774;8.732;2023-02-26T16:40:22;4.10;;;3.30;;
8001;SDS011;4046;48.774;8.732;2023-02-26T16:46:00;4.00;;;3.00;;
8001;SDS011;4046;48.774;8.732;2023-02-26T16:48:30;4.70;;;3.13;;
8001;SDS011;4046;48.774;8.732;2023-02-26T16:51:08;4.13;;;3.30;;
8001;SDS011;4046;48.774;8.732;2023-02-26T16:53:49;4.77;;;3.70;;
8001;SDS011;4046;48.774;8.732;2023-02-26T16:56:21;5.27;;;3.53;;
8001;SDS011;4046;48.774;8.732;2023-02-26T17:01:34;4.73;;;3.57;;
8001;SDS011;4046;48.774;8.732;2023-02-26T17:04:04;3.90;;;3.43;;
8001;SDS011;4046;48.774;8.732;2023-02-26T17:06:32;3.53;;;3.23;;
8001;SDS011;4046;48.774;8.732;2023-02-26T17:09:04;3.40;;;3.10;;
8001;SDS011;4046;48.774;8.732;2023-02-26T17:11:37;4.27;;;3.30;;
8001;SDS011;4046;48.774;8.732;2023-02-26T17:14:15;3.60;;;2.77;;
8001;SDS011;4046;48.774;8.732;2023-02-26T17:16:51;3.17;;;2.87;;
8001;SDS011;4046;48.774;8.732;2023-02-26T17:19:18;3.50;;;3.20;;
8001;SDS011;4046;48.774;8.732;2023-02-26T17:21:54;3.50;;;3.20;;
8001;SDS011;4046;48.774;8.732;2023-02-26T17:24:37;3.43;;;3.13;;
8001;SDS011;4046;48.774;8.732;2023-02-26T17:27:15;3.27;;;2.97;;
8001;SDS011;4046;48.774;8.732;2023-02-26T17:29:46;3.20;;;2.90;;
8001;SDS011;4046;48.774;8.732;2023-02-26T17:32:20;3.00;;;2.70;;
8001;SDS011;4046;48.774;8.732;2023-02-26T17:34:48;3.20;;;2.37;;
8001;SDS011;4046;48.774;8.732;2023-02-26T17:37:14;3.33;;;3.00;;
8001;SDS011;4046;48.774;8.732;2023-02-26T17:39:41;2.70;;;2.50;;
8001;SDS011;4046;48.774;8.732;2023-02-26T17:42:12;2.63;;;2.43;;
8001;SDS011;4046;48.774;8.732;2023-02-26T17:44:44;3.00;;;2.33;;
8001;SDS011;4046;48.774;8.732;2023-02-26T17:47:12;2.60;;;2.40;;
8001;SDS011;4046;48.774;8.732;2023-02-26T17:49:41;3.87;;;2.87;;
8001;SDS011;4046;48.774;8.732;2023-02-26T17:52:07;2.33;;;2.13;;
8001;SDS011;4046;48.774;8.732;2023-02-26T17:54:33;2.63;;;2.43;;
8001;SDS011;4046;48.774;8.732;2023-02-26T17:56:59;2.40;;;2.20;;
8001;SDS011;4046;48.774;8.732;2023-02-26T17:59:26;2.37;;;2.17;;
8001;SDS011;4046;48.774;8.732;2023-02-26T18:01:53;2.40;;;2.20;;
8001;SDS011;4046;48.774;8.732;2023-02-26T18:04:19;2.63;;;2.40;;
8001;SDS011;4046;48.774;8.732;2023-02-26T18:06:45;2.47;;;2.27;;
8001;SDS011;4046;48.774;8.732;2023-02-26T18:09:12;2.37;;;2.17;;
8001;SDS011;4046;48.774;8.732;2023-02-26T18:11:38;2.43;;;2.23;;
8001;SDS011;4046;48.774;8.732;2023-02-26T18:14:06;2.60;;;2.40;;
8001;SDS011;4046;48.774;8.732;2023-02-26T18:16:35;2.10;;;1.93;;
8001;SDS011;4046;48.774;8.732;2023-02-26T18:19:06;2.43;;;1.90;;
8001;SDS011;4046;48.774;8.732;2023-02-26T18:21:33;2.40;;;2.00;;
8001;SDS011;4046;48.774;8.732;2023-02-26T18:23:59;2.20;;;2.00;;